createdAt,value
2018-07-14T00:00:49.700Z,15.20
2018-07-14T00:03:19.819Z,15.20
2018-07-14T00:05:49.940Z,15.10
2018-07-14T00:08:20.052Z,15.10
2018-07-14T00:10:50.279Z,15.10
2018-07-14T00:13:20.418Z,15.10
2018-07-14T00:15:50.544Z,15.10
2018-07-14T00:18:20.701Z,15.00
2018-07-14T00:20:50.896Z,15.00
2018-07-14T00:23:21.021Z,14.90
2018-07-14T00:25:56.463Z,14.90
2018-07-14T00:28:26.545Z,14.90
2018-07-14T00:30:57.065Z,14.90
2018-07-14T00:33:27.355Z,14.80
2018-07-14T00:35:57.620Z,14.70
2018-07-14T00:38:28.278Z,14.70
2018-07-14T00:40:58.415Z,14.70
2018-07-14T00:43:28.520Z,14.70
2018-07-14T00:45:58.628Z,14.70
2018-07-14T00:48:28.796Z,14.70
2018-07-14T00:50:58.920Z,14.50
2018-07-14T00:53:29.008Z,14.50
2018-07-14T00:55:59.104Z,14.50
2018-07-14T00:58:29.235Z,14.50
2018-07-14T01:00:59.392Z,14.50
2018-07-14T01:03:29.615Z,14.50
2018-07-14T01:08:29.478Z,14.50
2018-07-14T01:10:59.689Z,14.40
2018-07-14T01:13:29.840Z,14.30
2018-07-14T01:15:59.924Z,14.20
2018-07-14T01:18:30.119Z,14.20
2018-07-14T01:21:00.229Z,14.20
2018-07-14T01:26:00.062Z,14.30
2018-07-14T01:28:30.204Z,14.40
2018-07-14T01:31:00.386Z,14.30
2018-07-14T01:33:30.512Z,14.30
2018-07-14T01:36:00.706Z,14.40
2018-07-14T01:38:30.820Z,14.30
2018-07-14T01:41:00.898Z,14.30
2018-07-14T01:43:31.047Z,14.20
2018-07-14T01:46:01.145Z,14.30
2018-07-14T01:48:31.260Z,14.20
2018-07-14T01:51:01.355Z,14.20
2018-07-14T01:53:31.440Z,14.20
2018-07-14T01:56:20.914Z,14.20
2018-07-14T01:58:59.329Z,14.30
2018-07-14T02:01:31.723Z,14.30
2018-07-14T02:04:01.811Z,14.20
2018-07-14T02:06:31.928Z,14.20
2018-07-14T02:09:02.016Z,14.20
2018-07-14T02:11:32.185Z,14.10
2018-07-14T02:14:02.292Z,14.20
2018-07-14T02:16:32.471Z,14.10
2018-07-14T02:19:02.564Z,14.00
2018-07-14T02:21:32.676Z,14.00
2018-07-14T02:24:03.797Z,13.90
2018-07-14T02:26:33.955Z,13.90
2018-07-14T02:29:04.129Z,13.90
2018-07-14T02:31:34.300Z,13.80
2018-07-14T02:34:04.517Z,13.90
2018-07-14T02:36:34.621Z,13.90
2018-07-14T02:41:48.160Z,13.90
2018-07-14T02:44:18.252Z,13.90
2018-07-14T02:46:48.445Z,13.90
2018-07-14T02:49:18.552Z,13.80
2018-07-14T02:51:48.692Z,13.70
2018-07-14T02:54:18.825Z,13.70
2018-07-14T02:56:48.976Z,13.60
2018-07-14T02:59:19.095Z,13.60
2018-07-14T03:01:49.185Z,13.60
2018-07-14T03:04:19.312Z,13.60
2018-07-14T03:06:49.401Z,13.60
2018-07-14T03:09:19.493Z,13.50
2018-07-14T03:11:49.584Z,13.40
2018-07-14T03:14:19.677Z,13.50
2018-07-14T03:16:49.776Z,13.60
2018-07-14T03:19:19.903Z,13.50
2018-07-14T03:21:49.997Z,13.60
2018-07-14T03:24:20.115Z,13.70
2018-07-14T03:26:50.189Z,13.80
2018-07-14T03:29:20.396Z,13.80
2018-07-14T03:31:50.486Z,13.80
2018-07-14T03:34:20.633Z,13.80
2018-07-14T03:36:50.727Z,13.70
2018-07-14T03:39:20.864Z,13.60
2018-07-14T03:41:51.034Z,13.60
2018-07-14T03:44:21.112Z,13.60
2018-07-14T03:46:51.225Z,13.70
2018-07-14T03:49:21.316Z,13.70
2018-07-14T03:51:51.571Z,13.70
2018-07-14T03:54:21.725Z,13.70
2018-07-14T03:56:51.839Z,13.80
2018-07-14T03:59:21.893Z,13.90
2018-07-14T04:01:52.033Z,13.90
2018-07-14T04:04:22.142Z,14.00
2018-07-14T04:06:52.301Z,14.00
2018-07-14T04:09:22.404Z,14.10
2018-07-14T04:11:52.743Z,14.40
2018-07-14T04:14:22.855Z,14.80
2018-07-14T04:16:53.225Z,15.20
2018-07-14T04:21:53.061Z,16.10
2018-07-14T04:24:23.144Z,16.60
2018-07-14T04:26:53.361Z,17.00
2018-07-14T04:29:23.596Z,17.60
2018-07-14T04:31:53.874Z,18.00
2018-07-14T04:34:23.928Z,18.50
2018-07-14T04:36:54.051Z,18.90
2018-07-14T04:39:24.268Z,19.40
2018-07-14T04:41:54.627Z,20.00
2018-07-14T04:44:24.945Z,20.50
2018-07-14T04:46:55.553Z,21.00
2018-07-14T04:49:25.674Z,21.20
2018-07-14T04:51:55.778Z,21.40
2018-07-14T04:54:26.054Z,21.80
2018-07-14T04:56:56.128Z,21.70
2018-07-14T04:59:26.218Z,21.40
2018-07-14T05:01:56.292Z,21.50
2018-07-14T05:04:26.371Z,21.90
2018-07-14T05:06:56.460Z,22.20
2018-07-14T05:09:26.535Z,22.40
2018-07-14T05:11:56.620Z,22.30
2018-07-14T05:14:26.688Z,22.20
2018-07-14T05:16:56.777Z,22.20
2018-07-14T05:19:26.956Z,22.00
2018-07-14T05:21:57.052Z,22.20
2018-07-14T05:24:27.176Z,22.60
2018-07-14T05:26:57.292Z,22.80
2018-07-14T05:29:27.401Z,23.00
2018-07-14T05:31:57.617Z,22.80
2018-07-14T05:34:28.089Z,23.20
2018-07-14T05:36:58.264Z,23.40
2018-07-14T05:39:28.372Z,24.20
2018-07-14T05:41:58.776Z,24.50
2018-07-14T05:44:29.019Z,24.60
2018-07-14T05:46:59.169Z,24.30
2018-07-14T05:49:29.648Z,24.70
2018-07-14T05:51:59.861Z,24.90
2018-07-14T05:54:29.932Z,25.30
2018-07-14T05:57:00.276Z,25.10
2018-07-14T05:59:30.397Z,25.30
2018-07-14T06:02:00.736Z,25.30
2018-07-14T06:04:30.924Z,25.50
2018-07-14T06:07:01.061Z,25.60
2018-07-14T06:09:31.220Z,26.00
2018-07-14T06:12:01.400Z,25.90
2018-07-14T06:14:31.557Z,26.30
2018-07-14T06:17:01.652Z,26.50
2018-07-14T06:19:31.823Z,26.30
2018-07-14T06:22:02.006Z,26.40
2018-07-14T06:24:32.199Z,26.50
2018-07-14T06:27:02.373Z,26.60
2018-07-14T06:29:32.495Z,26.90
2018-07-14T06:32:02.661Z,27.10
2018-07-14T06:34:32.716Z,27.30
2018-07-14T06:37:02.809Z,27.50
2018-07-14T06:39:32.935Z,27.80
2018-07-14T06:42:03.024Z,28.10
2018-07-14T06:44:33.137Z,28.30
2018-07-14T06:47:03.272Z,28.30
2018-07-14T06:49:33.349Z,28.30
2018-07-14T06:52:03.448Z,28.40
2018-07-14T06:54:33.544Z,28.30
2018-07-14T06:57:03.638Z,28.40
2018-07-14T06:59:33.702Z,28.30
2018-07-14T07:04:33.612Z,28.60
2018-07-14T07:07:03.730Z,28.30
2018-07-14T07:09:33.824Z,28.40
2018-07-14T07:12:03.909Z,28.30
2018-07-14T07:14:34.009Z,28.40
2018-07-14T07:17:04.199Z,28.60
2018-07-14T07:19:34.284Z,28.80
2018-07-14T07:22:04.424Z,28.70
2018-07-14T07:24:34.524Z,28.70
2018-07-14T07:27:04.621Z,28.70
2018-07-14T07:29:34.805Z,28.80
2018-07-14T07:32:04.948Z,29.20
2018-07-14T07:34:35.118Z,29.10
2018-07-14T07:37:05.599Z,29.20
2018-07-14T07:39:35.697Z,29.50
2018-07-14T07:42:05.815Z,29.50
2018-07-14T07:44:35.875Z,29.40
2018-07-14T07:47:06.041Z,29.40
2018-07-14T07:49:36.100Z,29.50
2018-07-14T07:52:06.308Z,29.40
2018-07-14T07:54:36.436Z,29.60
2018-07-14T07:57:06.805Z,29.70
2018-07-14T07:59:36.877Z,29.80
2018-07-14T08:02:07.246Z,29.90
2018-07-14T08:04:37.293Z,29.70
2018-07-14T08:07:08.152Z,29.60
2018-07-14T08:09:38.268Z,29.70
2018-07-14T08:12:08.404Z,29.60
2018-07-14T08:14:38.488Z,29.60
2018-07-14T08:17:08.602Z,29.50
2018-07-14T08:19:38.744Z,29.60
2018-07-14T08:22:08.948Z,29.50
2018-07-14T08:24:39.020Z,29.70
2018-07-14T08:27:09.121Z,29.80
2018-07-14T08:29:39.369Z,29.90
2018-07-14T08:37:09.505Z,29.60
2018-07-14T08:39:39.591Z,29.50
2018-07-14T08:42:09.760Z,29.40
2018-07-14T08:44:39.887Z,29.30
2018-07-14T08:49:39.980Z,29.20
2018-07-14T08:52:10.056Z,29.20
2018-07-14T08:54:40.287Z,29.40
2018-07-14T08:57:10.353Z,29.40
2018-07-14T08:59:40.484Z,29.30
2018-07-14T09:02:10.556Z,29.20
2018-07-14T09:04:40.623Z,29.30
2018-07-14T09:07:10.696Z,29.20
2018-07-14T09:09:40.776Z,29.10
2018-07-14T09:12:11.031Z,29.20
2018-07-14T09:14:41.116Z,29.00
2018-07-14T09:19:40.945Z,28.90
2018-07-14T09:22:11.038Z,28.90
2018-07-14T09:24:41.132Z,28.90
2018-07-14T09:27:11.197Z,28.80
2018-07-14T09:29:41.320Z,28.90
2018-07-14T09:32:13.964Z,28.90
2018-07-14T09:34:47.442Z,28.80
2018-07-14T09:37:17.595Z,28.90
2018-07-14T09:39:50.859Z,28.80
2018-07-14T09:42:21.768Z,28.70
2018-07-14T09:45:24.263Z,28.70
2018-07-14T09:51:25.070Z,28.40
2018-07-14T09:53:58.768Z,28.40
2018-07-14T09:56:33.248Z,28.40
2018-07-14T10:01:48.189Z,28.30
2018-07-14T10:04:34.392Z,28.20
2018-07-14T10:07:16.602Z,28.20
2018-07-14T10:09:56.553Z,28.20
2018-07-14T10:12:35.280Z,28.10
2018-07-14T10:15:12.673Z,27.70
2018-07-14T10:17:55.768Z,27.60
2018-07-14T10:20:31.420Z,27.70
2018-07-14T10:23:07.596Z,27.70
2018-07-14T10:25:45.418Z,27.70
2018-07-14T10:28:32.601Z,27.90
2018-07-14T10:31:12.886Z,28.10
2018-07-14T10:33:51.607Z,28.00
2018-07-14T10:36:30.236Z,28.10
2018-07-14T10:39:11.007Z,27.90
2018-07-14T10:41:48.326Z,27.90
2018-07-14T10:44:23.095Z,27.70
2018-07-14T10:47:07.106Z,27.80
2018-07-14T10:49:48.677Z,27.90
2018-07-14T10:52:24.945Z,28.10
2018-07-14T10:55:00.852Z,28.30
2018-07-14T10:57:34.555Z,28.40
2018-07-14T11:00:10.379Z,28.40
2018-07-14T11:02:42.411Z,28.60
2018-07-14T11:05:18.350Z,28.60
2018-07-14T11:07:52.115Z,28.70
2018-07-14T11:10:25.476Z,28.70
2018-07-14T11:13:00.736Z,28.60
2018-07-14T11:15:35.225Z,28.60
2018-07-14T11:18:05.641Z,28.50
2018-07-14T11:20:36.512Z,28.50
2018-07-14T11:23:07.148Z,28.50
2018-07-14T11:25:37.336Z,28.60
2018-07-14T11:28:07.447Z,28.70
2018-07-14T11:30:37.549Z,28.70
2018-07-14T11:33:07.649Z,28.60
2018-07-14T11:35:37.904Z,28.40
2018-07-14T11:38:08.071Z,28.30
2018-07-14T11:40:38.151Z,28.00
2018-07-14T11:43:08.256Z,28.00
2018-07-14T11:45:38.363Z,27.90
2018-07-14T11:48:08.476Z,28.00
2018-07-14T11:50:38.560Z,28.00
2018-07-14T11:53:08.716Z,28.00
2018-07-14T11:58:08.572Z,28.00
2018-07-14T12:00:39.578Z,28.10
2018-07-14T12:03:09.647Z,28.20
2018-07-14T12:05:39.720Z,28.30
2018-07-14T12:08:09.864Z,28.40
2018-07-14T12:10:39.968Z,28.50
2018-07-14T12:13:10.045Z,28.50
2018-07-14T12:15:40.188Z,28.50
2018-07-14T12:18:10.285Z,28.50
2018-07-14T12:20:40.352Z,28.50
2018-07-14T12:23:10.598Z,28.40
2018-07-14T12:25:40.719Z,28.30
2018-07-14T12:28:10.795Z,28.10
2018-07-14T12:30:40.948Z,27.90
2018-07-14T12:33:10.985Z,27.80
2018-07-14T12:35:41.084Z,27.70
2018-07-14T12:38:11.244Z,27.70
2018-07-14T12:40:41.337Z,27.80
2018-07-14T12:43:11.452Z,27.70
2018-07-14T12:45:41.568Z,27.70
2018-07-14T12:48:11.820Z,27.70
2018-07-14T12:50:41.909Z,27.70
2018-07-14T12:53:12.072Z,27.60
2018-07-14T12:55:44.986Z,27.50
2018-07-14T12:58:15.225Z,27.50
2018-07-14T13:00:46.056Z,27.50
2018-07-14T13:03:16.224Z,27.60
2018-07-14T13:05:46.393Z,27.70
2018-07-14T13:08:16.533Z,27.70
2018-07-14T13:10:46.716Z,27.70
2018-07-14T13:13:16.800Z,27.70
2018-07-14T13:15:46.916Z,27.70
2018-07-14T13:18:17.006Z,27.80
2018-07-14T13:20:47.143Z,27.90
2018-07-14T13:23:17.516Z,27.90
2018-07-14T13:25:47.903Z,28.00
2018-07-14T13:28:18.308Z,28.10
2018-07-14T13:30:48.689Z,28.10
2018-07-14T13:33:18.783Z,28.10
2018-07-14T13:35:48.914Z,28.00
2018-07-14T13:38:18.992Z,28.00
2018-07-14T13:40:49.088Z,27.90
2018-07-14T13:43:19.228Z,27.90
2018-07-14T13:45:49.639Z,27.90
2018-07-14T13:48:19.924Z,27.80
2018-07-14T13:50:50.005Z,27.90
2018-07-14T13:53:20.194Z,27.80
2018-07-14T13:55:50.339Z,27.90
2018-07-14T13:58:20.513Z,28.00
2018-07-14T14:00:50.787Z,28.00
2018-07-14T14:03:20.883Z,28.00
2018-07-14T14:05:53.417Z,27.90
2018-07-14T14:08:23.688Z,28.00
2018-07-14T14:10:53.800Z,28.00
2018-07-14T14:13:23.880Z,28.00
2018-07-14T14:15:54.016Z,28.00
2018-07-14T14:18:24.120Z,27.90
2018-07-14T14:20:54.862Z,27.90
2018-07-14T14:23:24.947Z,27.90
2018-07-14T14:25:55.424Z,27.90
2018-07-14T14:28:25.548Z,27.90
2018-07-14T14:30:55.644Z,27.90
2018-07-14T14:33:25.761Z,27.80
2018-07-14T14:35:55.907Z,27.80
2018-07-14T14:38:25.984Z,27.70
2018-07-14T14:40:56.072Z,27.60
2018-07-14T14:43:26.260Z,27.60
2018-07-14T14:45:56.620Z,27.60
2018-07-14T14:48:27.046Z,27.70
2018-07-14T14:50:57.524Z,27.70
2018-07-14T14:53:27.768Z,27.70
2018-07-14T14:55:57.925Z,27.70
2018-07-14T14:58:28.124Z,27.60
2018-07-14T15:00:58.290Z,27.70
2018-07-14T15:03:28.347Z,27.60
2018-07-14T15:05:58.539Z,27.60
2018-07-14T15:08:28.676Z,27.50
2018-07-14T15:10:58.773Z,27.50
2018-07-14T15:13:28.962Z,27.50
2018-07-14T15:15:59.056Z,27.60
2018-07-14T15:18:29.204Z,27.60
2018-07-14T15:20:59.452Z,27.60
2018-07-14T15:23:29.741Z,27.60
2018-07-14T15:26:00.369Z,27.60
2018-07-14T15:28:30.560Z,27.50
2018-07-14T15:31:00.699Z,27.50
2018-07-14T15:33:32.978Z,27.50
2018-07-14T15:36:04.037Z,27.30
2018-07-14T15:38:34.313Z,27.20
2018-07-14T15:41:04.665Z,27.10
2018-07-14T15:43:35.152Z,27.00
2018-07-14T15:46:05.576Z,26.90
2018-07-14T15:48:35.761Z,26.80
2018-07-14T15:51:06.261Z,26.60
2018-07-14T15:53:36.336Z,26.60
2018-07-14T15:56:07.440Z,26.50
2018-07-14T15:58:37.655Z,26.40
2018-07-14T16:01:07.903Z,26.40
2018-07-14T16:03:38.677Z,26.30
2018-07-14T16:06:08.739Z,26.30
2018-07-14T16:08:38.897Z,26.20
2018-07-14T16:11:09.410Z,26.10
2018-07-14T16:16:09.861Z,26.00
2018-07-14T16:18:39.957Z,26.00
2018-07-14T16:21:10.020Z,25.80
2018-07-14T16:23:40.228Z,25.80
2018-07-14T16:26:10.336Z,25.60
2018-07-14T16:28:40.543Z,25.50
2018-07-14T16:31:10.780Z,25.50
2018-07-14T16:33:40.910Z,25.40
2018-07-14T16:36:11.208Z,25.30
2018-07-14T16:38:41.488Z,25.30
2018-07-14T16:41:11.580Z,25.20
2018-07-14T16:43:41.837Z,25.10
2018-07-14T16:46:11.929Z,25.10
2018-07-14T16:48:42.142Z,25.10
2018-07-14T16:51:12.240Z,25.10
2018-07-14T16:53:42.368Z,25.20
2018-07-14T16:56:12.556Z,25.20
2018-07-14T16:58:42.749Z,25.30
2018-07-14T17:01:13.364Z,25.30
2018-07-14T17:03:43.432Z,25.30
2018-07-14T17:06:13.549Z,25.30
2018-07-14T17:08:43.656Z,25.30
2018-07-14T17:11:13.779Z,25.20
2018-07-14T17:13:43.881Z,25.20
2018-07-14T17:16:13.997Z,25.20
2018-07-14T17:18:44.909Z,25.20
2018-07-14T17:21:15.001Z,25.10
2018-07-14T17:23:45.169Z,25.10
2018-07-14T17:26:15.336Z,25.00
2018-07-14T17:28:45.416Z,25.00
2018-07-14T17:31:15.524Z,24.90
2018-07-14T17:33:45.620Z,24.90
2018-07-14T17:36:15.760Z,24.90
2018-07-14T17:38:45.869Z,24.80
2018-07-14T17:41:16.316Z,24.70
2018-07-14T17:43:46.554Z,24.60
2018-07-14T17:46:16.661Z,24.60
2018-07-14T17:48:46.920Z,24.40
2018-07-14T17:51:17.136Z,24.30
2018-07-14T17:53:47.196Z,24.20
2018-07-14T17:56:17.289Z,24.10
2018-07-14T17:58:47.401Z,24.10
2018-07-14T18:01:17.601Z,24.00
2018-07-14T18:03:47.765Z,23.90
2018-07-14T18:06:17.916Z,23.90
2018-07-14T18:08:48.122Z,23.90
2018-07-14T18:11:18.194Z,23.80
2018-07-14T18:13:48.463Z,23.40
2018-07-14T18:16:18.548Z,22.60
2018-07-14T18:18:48.739Z,21.70
2018-07-14T18:21:18.951Z,21.30
2018-07-14T18:23:49.048Z,20.90
2018-07-14T18:26:19.177Z,20.60
2018-07-14T18:31:19.017Z,20.30
2018-07-14T18:33:49.145Z,20.10
2018-07-14T18:36:19.286Z,20.10
2018-07-14T18:38:49.352Z,20.00
2018-07-14T18:41:19.483Z,19.90
2018-07-14T18:43:49.628Z,19.60
2018-07-14T18:46:19.744Z,19.20
2018-07-14T18:48:49.845Z,18.90
2018-07-14T18:51:20.141Z,18.70
2018-07-14T18:53:50.304Z,18.50
2018-07-14T18:56:20.577Z,18.40
2018-07-14T18:58:50.728Z,18.30
2018-07-14T19:01:21.474Z,18.30
2018-07-14T19:03:51.618Z,18.30
2018-07-14T19:06:21.724Z,18.30
2018-07-14T19:08:51.927Z,18.30
2018-07-14T19:11:22.084Z,18.30
2018-07-14T19:13:52.172Z,18.30
2018-07-14T19:16:22.272Z,18.30
2018-07-14T19:21:22.268Z,18.40
2018-07-14T19:23:52.936Z,18.40
2018-07-14T19:26:23.272Z,18.40
2018-07-14T19:28:53.368Z,18.40
2018-07-14T19:31:23.503Z,18.30
2018-07-14T19:33:53.620Z,18.40
2018-07-14T19:36:24.236Z,18.40
2018-07-14T19:38:54.376Z,18.30
2018-07-14T19:41:24.680Z,18.30
2018-07-14T19:43:54.845Z,18.20
2018-07-14T19:46:24.944Z,18.20
2018-07-14T19:48:55.237Z,18.30
2018-07-14T19:51:25.363Z,18.30
2018-07-14T19:53:55.488Z,18.20
2018-07-14T19:56:25.607Z,18.10
2018-07-14T19:58:55.708Z,18.10
2018-07-14T20:01:25.861Z,18.00
2018-07-14T20:03:55.973Z,17.90
2018-07-14T20:06:26.127Z,17.90
2018-07-14T20:08:56.265Z,17.90
2018-07-14T20:11:26.557Z,17.80
2018-07-14T20:13:56.662Z,17.80
2018-07-14T20:16:26.887Z,17.80
2018-07-14T20:18:57.346Z,17.70
2018-07-14T20:21:27.508Z,17.60
2018-07-14T20:23:57.716Z,17.60
2018-07-14T20:26:27.841Z,17.60
2018-07-14T20:28:58.016Z,17.60
2018-07-14T20:33:58.148Z,17.50
2018-07-14T20:36:28.362Z,17.50
2018-07-14T20:38:58.487Z,17.40
2018-07-14T20:41:28.632Z,17.40
2018-07-14T20:43:58.751Z,17.30
2018-07-14T20:46:28.881Z,17.30
2018-07-14T20:48:58.980Z,17.30
2018-07-14T20:51:29.108Z,17.30
2018-07-14T20:53:59.201Z,17.20
2018-07-14T20:56:29.337Z,17.20
2018-07-14T20:58:59.496Z,17.20
2018-07-14T21:01:29.612Z,17.30
2018-07-14T21:03:59.752Z,17.20
2018-07-14T21:06:29.928Z,17.20
2018-07-14T21:09:00.349Z,17.20
2018-07-14T21:11:30.662Z,17.20
2018-07-14T21:14:00.977Z,17.10
2018-07-14T21:19:00.968Z,17.10
2018-07-14T21:21:31.079Z,17.10
2018-07-14T21:24:01.675Z,17.00
2018-07-14T21:26:32.214Z,17.00
2018-07-14T21:29:02.857Z,16.80
2018-07-14T21:31:33.224Z,16.80
2018-07-14T21:34:03.664Z,16.70
2018-07-14T21:36:34.053Z,16.70
2018-07-14T21:39:05.373Z,16.60
2018-07-14T21:41:37.393Z,16.60
2018-07-14T21:44:08.193Z,16.60
2018-07-14T21:46:38.437Z,16.60
2018-07-14T21:49:08.632Z,16.60
2018-07-14T21:51:38.755Z,16.60
2018-07-14T21:54:09.277Z,16.60
2018-07-14T21:56:39.681Z,16.60
2018-07-14T21:59:09.996Z,16.60
2018-07-14T22:01:45.416Z,16.50
2018-07-14T22:04:15.760Z,16.50
2018-07-14T22:06:46.140Z,16.50
2018-07-14T22:17:42.668Z,16.40
2018-07-14T22:20:12.827Z,16.30
2018-07-14T22:24:22.201Z,16.30
2018-07-14T22:31:35.141Z,16.40
2018-07-14T22:37:29.995Z,16.40
2018-07-14T22:40:00.118Z,16.30
2018-07-14T22:42:30.259Z,16.30
2018-07-14T22:48:08.058Z,16.30
2018-07-14T22:50:38.221Z,16.30
2018-07-14T22:53:08.382Z,16.30
2018-07-14T22:55:40.660Z,16.20
2018-07-14T23:01:18.863Z,16.20
2018-07-14T23:03:49.595Z,16.20
2018-07-14T23:06:20.442Z,16.20
2018-07-14T23:09:36.432Z,16.20
2018-07-14T23:17:57.965Z,16.20
2018-07-14T23:20:32.537Z,16.20
2018-07-14T23:23:28.586Z,16.10
2018-07-14T23:27:34.202Z,16.10
2018-07-14T23:30:04.881Z,16.00
2018-07-14T23:32:34.992Z,16.00
2018-07-14T23:35:05.124Z,16.00
2018-07-14T23:37:35.421Z,15.90
2018-07-14T23:40:07.278Z,15.90
2018-07-14T23:42:37.412Z,15.90
2018-07-14T23:45:31.130Z,15.90
2018-07-14T23:48:37.986Z,15.90
2018-07-14T23:55:16.358Z,15.80
2018-07-14T23:58:00.610Z,15.80
